Time;durP1;ratioP1;P1;durP2;ratioP2;P2;SDS_P1;SDS_P2;PMS_P1;PMS_P2;Temp;Humidity;BMP_temperature;BMP_pressure;BME280_temperature;BME280_humidity;BME280_pressure;Samples;Min_cycle;Max_cycle;Signal;HPM_P1;HPM_P2
2023/01/26 04:56:15;;;;;;;11.63;7.60;;;;;;;;;;5483754;23;20235;-72
2023/01/26 04:58:42;;;;;;;11.43;7.88;;;;;;;;;;4997056;28;20203;-70
2023/01/26 05:01:09;;;;;;;12.38;7.55;;;;;;;;;;4985216;28;20207;-71
2023/01/26 05:03:36;;;;;;;13.13;8.23;;;;;;;;;;4977318;28;20203;-71
2023/01/26 05:06:03;;;;;;;18.13;9.15;;;;;;;;;;4976510;28;20230;-71
2023/01/26 05:08:30;;;;;;;14.15;9.27;;;;;;;;;;4977510;28;20210;-71
2023/01/26 05:10:57;;;;;;;14.80;8.65;;;;;;;;;;4977130;28;20207;-72
2023/01/26 05:13:26;;;;;;;13.00;8.63;;;;;;;;;;4975490;28;20207;-72
2023/01/26 05:15:53;;;;;;;12.18;8.18;;;;;;;;;;4976465;28;20230;-73
2023/01/26 05:18:20;;;;;;;14.57;9.13;;;;;;;;;;4976638;28;20207;-72
2023/01/26 05:20:47;;;;;;;13.43;8.57;;;;;;;;;;4977018;28;20199;-73
2023/01/26 05:23:14;;;;;;;14.55;8.25;;;;;;;;;;4976150;28;20562;-71
2023/01/26 05:25:41;;;;;;;14.20;8.75;;;;;;;;;;4976240;28;20227;-72
2023/01/26 05:28:08;;;;;;;14.52;9.65;;;;;;;;;;4976048;28;20670;-71
2023/01/26 05:30:36;;;;;;;16.13;10.38;;;;;;;;;;4976353;28;20207;-71
2023/01/26 05:33:04;;;;;;;16.52;9.85;;;;;;;;;;4976630;28;20210;-73
2023/01/26 05:35:31;;;;;;;11.32;7.68;;;;;;;;;;4976068;28;20231;-72
2023/01/26 05:37:58;;;;;;;15.32;9.68;;;;;;;;;;4976191;28;20207;-70
2023/01/26 05:40:25;;;;;;;14.75;9.35;;;;;;;;;;4976043;28;20214;-71
2023/01/26 05:42:52;;;;;;;16.85;9.65;;;;;;;;;;4976001;28;20241;-71
2023/01/26 05:45:19;;;;;;;18.48;10.25;;;;;;;;;;4975559;28;20694;-71
2023/01/26 05:47:48;;;;;;;17.08;10.32;;;;;;;;;;4975862;28;20207;-72
2023/01/26 05:50:15;;;;;;;13.88;9.57;;;;;;;;;;4975884;28;20227;-71
2023/01/26 05:52:45;;;;;;;16.42;10.20;;;;;;;;;;4975826;28;20389;-75
2023/01/26 05:55:12;;;;;;;18.88;10.70;;;;;;;;;;4975458;28;20223;-72
2023/01/26 05:57:39;;;;;;;16.58;10.40;;;;;;;;;;4975510;28;20203;-72
2023/01/26 06:00:07;;;;;;;17.65;10.48;;;;;;;;;;4975721;28;20195;-72
2023/01/26 06:02:34;;;;;;;17.45;10.35;;;;;;;;;;4975331;28;20222;-72
2023/01/26 06:05:02;;;;;;;18.85;11.20;;;;;;;;;;4975141;28;20695;-72
2023/01/26 06:07:29;;;;;;;17.30;10.80;;;;;;;;;;4975598;28;20210;-72
2023/01/26 11:37:25;;;;;;;8.38;6.28;;;;;;;;;;4958330;29;20254;-73
2023/01/26 11:39:57;;;;;;;6.18;5.55;;;;;;;;;;4958872;29;20196;-73
2023/01/26 11:42:27;;;;;;;7.45;6.32;;;;;;;;;;4959187;29;20192;-74
2023/01/26 11:44:59;;;;;;;10.18;6.38;;;;;;;;;;4958898;29;20228;-74
2023/01/26 11:47:34;;;;;;;6.13;5.15;;;;;;;;;;4959466;29;20188;-71
2023/01/26 11:50:07;;;;;;;5.95;5.35;;;;;;;;;;4958905;29;20563;-72
2023/01/26 11:52:42;;;;;;;6.85;5.32;;;;;;;;;;4958963;29;20207;-71
2023/01/26 11:55:18;;;;;;;6.88;5.68;;;;;;;;;;4958313;29;20303;-72
2023/01/26 11:57:51;;;;;;;18.52;10.07;;;;;;;;;;4958406;29;20199;-72
2023/01/26 12:00:22;;;;;;;4.80;4.30;;;;;;;;;;4958577;29;20551;-72
2023/01/26 12:02:51;;;;;;;5.78;4.97;;;;;;;;;;4958353;29;20192;-72
2023/01/26 12:05:22;;;;;;;5.85;5.07;;;;;;;;;;4957944;29;20235;-73
2023/01/26 12:07:54;;;;;;;6.93;5.40;;;;;;;;;;4958281;29;20243;-73
2023/01/26 12:10:23;;;;;;;6.50;4.90;;;;;;;;;;4958367;29;20665;-72
2023/01/26 12:12:54;;;;;;;6.68;5.40;;;;;;;;;;4958969;29;20215;-73
2023/01/26 12:15:26;;;;;;;8.02;5.78;;;;;;;;;;4958796;29;20220;-73
2023/01/26 12:17:58;;;;;;;4.78;4.38;;;;;;;;;;4958526;29;20188;-72
2023/01/26 12:20:28;;;;;;;6.20;5.30;;;;;;;;;;4958387;29;20218;-72
2023/01/26 12:23:01;;;;;;;4.55;4.15;;;;;;;;;;4957930;28;20255;-72
2023/01/26 12:25:30;;;;;;;7.57;4.82;;;;;;;;;;4963150;29;20224;-72
2023/01/26 12:27:59;;;;;;;6.68;5.38;;;;;;;;;;4963267;29;20227;-72
2023/01/26 12:30:35;;;;;;;5.90;5.30;;;;;;;;;;4966672;29;20203;-75
2023/01/26 12:33:02;;;;;;;5.85;5.00;;;;;;;;;;4970904;29;20271;-75
2023/01/26 12:35:36;;;;;;;7.10;5.57;;;;;;;;;;4972205;29;20734;-74
2023/01/26 12:38:09;;;;;;;7.05;5.60;;;;;;;;;;4968925;29;20582;-74
2023/01/26 12:40:38;;;;;;;4.72;4.32;;;;;;;;;;4963941;29;20195;-75
2023/01/26 12:43:15;;;;;;;4.72;4.32;;;;;;;;;;4963945;29;20202;-73
2023/01/26 12:45:45;;;;;;;6.10;5.50;;;;;;;;;;4961499;28;20238;-71
2023/01/26 12:48:15;;;;;;;5.50;5.00;;;;;;;;;;4963342;29;20221;-71
2023/01/26 12:50:45;;;;;;;7.50;5.35;;;;;;;;;;4962062;29;20227;-73
2023/01/26 12:53:17;;;;;;;6.97;5.80;;;;;;;;;;4963487;29;20193;-74
2023/01/26 12:55:46;;;;;;;6.30;5.32;;;;;;;;;;4963289;29;20235;-72
2023/01/26 12:58:15;;;;;;;6.35;5.57;;;;;;;;;;4963068;29;20644;-75
2023/01/26 13:00:51;;;;;;;6.22;5.53;;;;;;;;;;4960881;29;20668;-74
2023/01/26 13:03:21;;;;;;;7.50;5.72;;;;;;;;;;4961654;29;20183;-76
2023/01/26 13:05:56;;;;;;;7.07;5.70;;;;;;;;;;4961306;29;20239;-75
2023/01/26 13:08:50;;;;;;;8.18;5.35;;;;;;;;;;4960468;29;20199;-75
2023/01/26 13:11:32;;;;;;;9.07;7.00;;;;;;;;;;4962061;29;20247;-75
2023/01/26 13:13:59;;;;;;;6.22;5.55;;;;;;;;;;4971304;29;20211;-74
2023/01/26 13:16:33;;;;;;;6.00;5.40;;;;;;;;;;4964286;29;20196;-74
2023/01/26 13:19:01;;;;;;;7.78;6.22;;;;;;;;;;4959197;29;20210;-74
2023/01/26 13:21:28;;;;;;;7.10;5.38;;;;;;;;;;4958799;29;20211;-76
2023/01/26 13:23:56;;;;;;;7.32;5.40;;;;;;;;;;4956919;29;20204;-74
2023/01/26 13:26:51;;;;;;;6.38;5.45;;;;;;;;;;4957192;29;20215;-76
2023/01/26 13:29:32;;;;;;;5.32;4.82;;;;;;;;;;4957115;29;20632;-75
2023/01/26 13:32:02;;;;;;;7.32;5.38;;;;;;;;;;4957253;29;20204;-75
2023/01/26 13:34:30;;;;;;;5.35;4.85;;;;;;;;;;4956018;28;20224;-75
2023/01/26 13:37:01;;;;;;;6.93;5.90;;;;;;;;;;4960086;29;20204;-75
2023/01/26 13:39:32;;;;;;;5.22;4.45;;;;;;;;;;4962454;29;20192;-73
2023/01/26 13:41:59;;;;;;;6.07;4.93;;;;;;;;;;4962797;29;20298;-74
2023/01/26 13:44:31;;;;;;;11.52;6.07;;;;;;;;;;4962077;29;20224;-75
2023/01/26 13:47:00;;;;;;;10.57;5.93;;;;;;;;;;4962068;29;20247;-72
2023/01/26 13:49:37;;;;;;;5.18;4.68;;;;;;;;;;4960721;29;20200;-73
2023/01/26 13:52:04;;;;;;;5.40;4.90;;;;;;;;;;4962881;29;20204;-73
2023/01/26 13:54:33;;;;;;;6.22;4.72;;;;;;;;;;4960472;29;20288;-73
2023/01/26 13:57:02;;;;;;;5.28;4.85;;;;;;;;;;4961202;29;20211;-73
2023/01/26 13:59:29;;;;;;;4.68;4.25;;;;;;;;;;4960648;29;20239;-73
2023/01/26 14:01:57;;;;;;;5.22;4.35;;;;;;;;;;4961178;29;20200;-72
2023/01/26 14:04:25;;;;;;;4.93;4.43;;;;;;;;;;4960560;29;20231;-72
2023/01/26 14:06:56;;;;;;;7.47;5.25;;;;;;;;;;4956192;29;20223;-72
2023/01/26 14:09:23;;;;;;;6.97;5.50;;;;;;;;;;4956058;29;20194;-72
2023/01/26 14:11:56;;;;;;;5.05;4.65;;;;;;;;;;4957132;29;20216;-73
2023/01/26 14:14:25;;;;;;;5.18;4.70;;;;;;;;;;4960786;29;20223;-73
2023/01/26 14:16:52;;;;;;;5.55;4.88;;;;;;;;;;4963747;29;20196;-73
2023/01/26 14:19:20;;;;;;;6.10;5.00;;;;;;;;;;4963164;29;20208;-73
2023/01/26 14:21:49;;;;;;;6.20;5.60;;;;;;;;;;4962585;29;20211;-73
2023/01/26 14:24:16;;;;;;;5.38;4.88;;;;;;;;;;4962203;29;20291;-73
2023/01/26 14:26:43;;;;;;;6.32;5.47;;;;;;;;;;4962245;29;20235;-73
2023/01/26 14:29:19;;;;;;;5.55;5.05;;;;;;;;;;4961776;29;20273;-72
2023/01/26 14:31:47;;;;;;;5.38;4.82;;;;;;;;;;4961480;29;20192;-72
2023/01/26 14:34:18;;;;;;;6.00;5.07;;;;;;;;;;4962574;29;20228;-72
2023/01/26 14:36:46;;;;;;;12.57;7.57;;;;;;;;;;4961668;29;20253;-73
2023/01/26 14:39:17;;;;;;;15.57;9.35;;;;;;;;;;4960752;29;20188;-73
2023/01/26 14:41:44;;;;;;;12.00;7.72;;;;;;;;;;4961346;29;20251;-73
2023/01/26 14:44:11;;;;;;;15.57;9.20;;;;;;;;;;4961405;29;20656;-73
2023/01/26 14:46:43;;;;;;;8.48;5.57;;;;;;;;;;4961770;28;20248;-72
2023/01/26 14:49:13;;;;;;;7.82;6.07;;;;;;;;;;4961569;29;20239;-72
2023/01/26 14:51:41;;;;;;;7.88;6.55;;;;;;;;;;4961304;28;20315;-72
2023/01/26 14:54:14;;;;;;;9.23;6.57;;;;;;;;;;4960676;29;20204;-72
2023/01/26 14:56:46;;;;;;;10.10;6.80;;;;;;;;;;4961746;29;20239;-72
2023/01/26 14:59:19;;;;;;;9.25;6.40;;;;;;;;;;4961220;29;20215;-72
2023/01/26 15:01:48;;;;;;;6.70;5.88;;;;;;;;;;4960264;29;20202;-72
2023/01/26 15:04:22;;;;;;;8.35;5.72;;;;;;;;;;4960348;29;20224;-73
2023/01/26 15:06:49;;;;;;;8.07;6.50;;;;;;;;;;4960594;29;20204;-74
2023/01/26 15:09:21;;;;;;;11.45;8.10;;;;;;;;;;4961033;29;20222;-73
2023/01/26 15:14:39;;;;;;;11.77;8.02;;;;;;;;;;4959739;29;20270;-73
2023/01/26 15:17:07;;;;;;;13.68;9.10;;;;;;;;;;4959688;28;20627;-73
2023/01/26 15:19:41;;;;;;;11.27;7.63;;;;;;;;;;4960133;29;20215;-73
2023/01/26 15:22:21;;;;;;;13.30;7.97;;;;;;;;;;4960219;29;20215;-72
2023/01/26 15:25:00;;;;;;;11.40;7.38;;;;;;;;;;4960240;29;20757;-72
2023/01/26 15:27:31;;;;;;;12.63;8.20;;;;;;;;;;4959698;29;20231;-72
2023/01/26 15:29:58;;;;;;;12.45;7.90;;;;;;;;;;4955947;29;20189;-72
2023/01/26 15:32:32;;;;;;;10.95;7.85;;;;;;;;;;4955135;29;20754;-72
2023/01/26 15:35:07;;;;;;;12.20;7.80;;;;;;;;;;4955576;29;20228;-72
2023/01/26 15:37:35;;;;;;;15.70;8.70;;;;;;;;;;4955015;29;20208;-72
2023/01/26 15:40:03;;;;;;;16.60;10.18;;;;;;;;;;4955324;29;20290;-72
2023/01/26 15:42:30;;;;;;;15.23;9.63;;;;;;;;;;4955539;29;20212;-72
2023/01/26 15:44:57;;;;;;;17.88;10.07;;;;;;;;;;4955287;29;20244;-72
2023/01/26 15:47:25;;;;;;;14.10;9.35;;;;;;;;;;4955167;29;20316;-72
2023/01/26 15:49:53;;;;;;;17.02;9.23;;;;;;;;;;4955272;29;20208;-73
2023/01/26 15:52:23;;;;;;;19.33;10.00;;;;;;;;;;4955411;29;20204;-73
2023/01/26 15:54:51;;;;;;;14.88;9.05;;;;;;;;;;4955385;29;20287;-73
2023/01/26 15:57:18;;;;;;;15.02;9.65;;;;;;;;;;4956249;28;20199;-72
2023/01/26 15:59:46;;;;;;;14.45;8.70;;;;;;;;;;4958605;29;20291;-73
2023/01/26 16:02:14;;;;;;;16.58;9.00;;;;;;;;;;4958518;29;20294;-73
2023/01/26 16:04:41;;;;;;;14.10;9.68;;;;;;;;;;4958403;29;20725;-72
2023/01/26 16:07:13;;;;;;;12.60;8.48;;;;;;;;;;4958552;29;20314;-73
2023/01/26 16:09:41;;;;;;;15.23;9.77;;;;;;;;;;4958622;29;20636;-73
2023/01/26 16:12:10;;;;;;;11.10;8.32;;;;;;;;;;4958515;29;20258;-72
2023/01/26 16:14:37;;;;;;;11.75;9.00;;;;;;;;;;4958181;29;20708;-71
2023/01/26 16:17:07;;;;;;;12.15;8.65;;;;;;;;;;4958360;29;20283;-71
2023/01/26 16:19:34;;;;;;;15.00;8.93;;;;;;;;;;4959430;29;20196;-71
2023/01/26 16:22:01;;;;;;;15.00;8.55;;;;;;;;;;4958354;29;20204;-70
2023/01/26 16:24:29;;;;;;;13.60;8.88;;;;;;;;;;4958452;29;20239;-72
2023/01/26 16:26:56;;;;;;;14.05;9.85;;;;;;;;;;4958152;29;20239;-72
2023/01/26 16:29:23;;;;;;;15.10;9.15;;;;;;;;;;4958120;29;20683;-72
2023/01/26 16:31:51;;;;;;;18.35;9.48;;;;;;;;;;4958383;29;20215;-72
2023/01/26 16:34:18;;;;;;;18.40;11.40;;;;;;;;;;4958072;29;20279;-72
2023/01/26 16:36:45;;;;;;;20.73;11.27;;;;;;;;;;4957554;29;20240;-71
2023/01/26 16:39:12;;;;;;;16.95;10.40;;;;;;;;;;4958078;29;20189;-71
2023/01/26 16:41:41;;;;;;;13.30;9.25;;;;;;;;;;4958026;29;20200;-72
2023/01/26 16:44:12;;;;;;;15.45;9.13;;;;;;;;;;4957808;29;20208;-71
2023/01/26 16:46:39;;;;;;;15.85;9.60;;;;;;;;;;4957921;29;20208;-71
2023/01/26 16:49:06;;;;;;;13.18;8.13;;;;;;;;;;4957755;29;20219;-71
2023/01/26 16:51:37;;;;;;;14.95;8.82;;;;;;;;;;4957762;29;20207;-71
2023/01/26 16:54:05;;;;;;;14.65;9.30;;;;;;;;;;4957700;29;20338;-70
2023/01/26 16:56:32;;;;;;;15.07;9.50;;;;;;;;;;4957762;29;20617;-74
2023/01/26 16:59:01;;;;;;;15.45;8.70;;;;;;;;;;4957401;29;20242;-72
2023/01/26 17:01:31;;;;;;;16.70;10.10;;;;;;;;;;4957739;29;20192;-72
2023/01/26 17:03:58;;;;;;;17.20;10.20;;;;;;;;;;4957501;29;20299;-72
2023/01/26 17:06:25;;;;;;;14.77;9.35;;;;;;;;;;4957517;29;20200;-73
2023/01/26 17:08:53;;;;;;;20.20;12.30;;;;;;;;;;4957447;28;20227;-72
2023/01/26 17:11:21;;;;;;;18.30;10.77;;;;;;;;;;4957386;29;20211;-73
2023/01/26 17:13:49;;;;;;;17.90;11.32;;;;;;;;;;4957593;29;20231;-73
2023/01/26 17:16:18;;;;;;;15.85;10.57;;;;;;;;;;4957473;29;20224;-74
2023/01/26 17:18:46;;;;;;;15.00;10.40;;;;;;;;;;4957583;29;20196;-75
2023/01/26 17:21:17;;;;;;;14.07;9.35;;;;;;;;;;4957064;29;20291;-75
2023/01/26 17:23:45;;;;;;;14.25;9.30;;;;;;;;;;4955998;29;20263;-75
2023/01/26 17:26:15;;;;;;;11.77;8.30;;;;;;;;;;4956843;29;20228;-75
2023/01/26 17:28:43;;;;;;;13.32;8.10;;;;;;;;;;4957477;29;20604;-75
2023/01/26 17:31:10;;;;;;;10.98;8.30;;;;;;;;;;4957065;29;20257;-75
2023/01/26 17:33:39;;;;;;;12.75;8.35;;;;;;;;;;4957028;29;20200;-74
2023/01/26 17:36:07;;;;;;;10.38;7.40;;;;;;;;;;4957292;29;20228;-74
2023/01/26 17:38:34;;;;;;;13.50;8.38;;;;;;;;;;4956484;29;20662;-73
2023/01/26 17:41:01;;;;;;;15.82;9.27;;;;;;;;;;4957001;29;20204;-75
2023/01/26 17:43:28;;;;;;;14.77;9.00;;;;;;;;;;4956901;29;20208;-74
2023/01/26 17:46:01;;;;;;;12.57;9.02;;;;;;;;;;4956412;29;20707;-74
2023/01/26 17:48:29;;;;;;;11.90;8.35;;;;;;;;;;4956660;29;20247;-74
2023/01/26 17:50:57;;;;;;;13.15;8.65;;;;;;;;;;4956844;29;20199;-73
2023/01/26 17:53:26;;;;;;;13.35;8.95;;;;;;;;;;4956433;29;20695;-73
2023/01/26 17:55:53;;;;;;;15.68;8.65;;;;;;;;;;4956818;29;20224;-72
2023/01/26 17:58:20;;;;;;;14.15;9.23;;;;;;;;;;4956515;29;20184;-70
2023/01/26 18:00:47;;;;;;;11.95;8.00;;;;;;;;;;4956267;29;20606;-72
2023/01/26 18:03:15;;;;;;;13.30;9.18;;;;;;;;;;4956659;29;20204;-73
2023/01/26 18:05:50;;;;;;;13.23;8.57;;;;;;;;;;4956134;29;20592;-73
2023/01/26 18:08:18;;;;;;;12.80;9.00;;;;;;;;;;4956359;29;20246;-73
2023/01/26 18:10:46;;;;;;;15.43;10.27;;;;;;;;;;4956466;29;20207;-73
2023/01/26 18:13:13;;;;;;;23.90;12.02;;;;;;;;;;4962669;29;20208;-73
2023/01/26 18:15:40;;;;;;;15.93;10.85;;;;;;;;;;4968784;29;20231;-73
2023/01/26 18:18:07;;;;;;;23.45;12.20;;;;;;;;;;4964499;29;20660;-72
2023/01/26 18:20:34;;;;;;;21.77;12.07;;;;;;;;;;4971688;28;20212;-73
2023/01/26 18:23:01;;;;;;;26.38;13.48;;;;;;;;;;4961946;29;20626;-73
2023/01/26 18:25:29;;;;;;;19.60;11.40;;;;;;;;;;4956223;29;20568;-73
2023/01/26 18:27:56;;;;;;;16.70;9.88;;;;;;;;;;4956159;29;20223;-73
2023/01/26 18:30:23;;;;;;;17.38;10.25;;;;;;;;;;4956185;29;20200;-74
2023/01/26 18:32:50;;;;;;;14.63;8.93;;;;;;;;;;4956448;29;20210;-74
2023/01/26 18:35:18;;;;;;;18.92;10.93;;;;;;;;;;4956712;29;20224;-74
2023/01/26 18:37:45;;;;;;;15.77;10.10;;;;;;;;;;4956388;29;20266;-69
2023/01/26 18:40:14;;;;;;;20.30;12.77;;;;;;;;;;4955906;29;20211;-71
2023/01/26 18:42:42;;;;;;;31.10;18.67;;;;;;;;;;4955847;29;20600;-70
2023/01/26 18:45:09;;;;;;;17.90;11.95;;;;;;;;;;4955957;29;20231;-70
2023/01/26 18:47:37;;;;;;;17.90;11.02;;;;;;;;;;4956660;29;20314;-71
2023/01/26 18:50:04;;;;;;;15.10;9.20;;;;;;;;;;4956099;29;20204;-71
2023/01/26 18:52:31;;;;;;;14.27;8.68;;;;;;;;;;4955725;29;20204;-71
2023/01/26 18:54:58;;;;;;;16.20;10.40;;;;;;;;;;4955364;29;20707;-70
2023/01/26 18:57:25;;;;;;;14.32;10.07;;;;;;;;;;4955507;29;20667;-70
2023/01/26 18:59:53;;;;;;;15.45;10.07;;;;;;;;;;4955510;29;20615;-71
2023/01/26 19:02:20;;;;;;;12.45;7.60;;;;;;;;;;4955557;29;20578;-74
2023/01/26 19:04:52;;;;;;;11.43;7.57;;;;;;;;;;4955562;29;20715;-73
2023/01/26 19:07:19;;;;;;;14.32;8.48;;;;;;;;;;4955823;29;20193;-73
2023/01/26 19:09:46;;;;;;;13.93;9.70;;;;;;;;;;4955586;29;20208;-73
2023/01/26 19:12:13;;;;;;;13.98;8.65;;;;;;;;;;4955864;29;20251;-73
2023/01/26 19:14:40;;;;;;;12.60;8.45;;;;;;;;;;4955664;29;20239;-73
2023/01/26 19:17:08;;;;;;;13.18;8.95;;;;;;;;;;4955626;29;20200;-73
2023/01/26 19:19:37;;;;;;;13.85;8.73;;;;;;;;;;4955511;29;20231;-71
2023/01/26 19:22:04;;;;;;;13.63;8.35;;;;;;;;;;4955386;29;20655;-72
2023/01/26 19:24:31;;;;;;;41.47;17.02;;;;;;;;;;4956021;29;20232;-72
2023/01/26 19:27:04;;;;;;;46.08;21.45;;;;;;;;;;4955538;29;20200;-73
2023/01/26 19:29:31;;;;;;;51.58;23.38;;;;;;;;;;4955507;29;20239;-73
2023/01/26 19:31:58;;;;;;;24.17;12.95;;;;;;;;;;4955957;28;20210;-73
2023/01/26 19:34:27;;;;;;;60.40;25.88;;;;;;;;;;4959516;29;20223;-73
2023/01/26 19:36:54;;;;;;;51.38;24.45;;;;;;;;;;4959137;29;20211;-73
2023/01/26 19:39:21;;;;;;;70.57;31.05;;;;;;;;;;4959314;29;20184;-73
2023/01/26 19:41:49;;;;;;;29.95;16.35;;;;;;;;;;4959166;29;20210;-74
2023/01/26 19:44:16;;;;;;;27.60;15.15;;;;;;;;;;4959112;29;20224;-75
2023/01/26 19:46:43;;;;;;;43.15;23.17;;;;;;;;;;4959154;29;20212;-74
2023/01/26 19:49:11;;;;;;;29.17;15.93;;;;;;;;;;4958736;29;20216;-74
2023/01/26 19:51:40;;;;;;;27.85;15.25;;;;;;;;;;4958941;29;20215;-74
2023/01/26 19:54:07;;;;;;;23.00;13.55;;;;;;;;;;4958935;29;20206;-71
2023/01/26 19:56:35;;;;;;;19.70;12.38;;;;;;;;;;4960483;29;20215;-71
2023/01/26 19:59:03;;;;;;;20.75;11.07;;;;;;;;;;4958990;29;20200;-71
2023/01/26 20:01:31;;;;;;;16.65;10.90;;;;;;;;;;4958957;29;20207;-71
2023/01/26 20:03:59;;;;;;;17.10;9.98;;;;;;;;;;4958640;29;20210;-71
2023/01/26 20:06:27;;;;;;;16.45;11.25;;;;;;;;;;4958337;29;20676;-71
2023/01/26 20:08:55;;;;;;;14.82;10.55;;;;;;;;;;4958434;29;20746;-72
2023/01/26 20:11:26;;;;;;;16.10;10.68;;;;;;;;;;4958466;29;20211;-71
2023/01/26 20:13:56;;;;;;;16.15;10.77;;;;;;;;;;4958580;29;20198;-71
2023/01/26 20:16:23;;;;;;;18.10;10.32;;;;;;;;;;4958656;29;20291;-71
2023/01/26 20:18:50;;;;;;;16.83;10.77;;;;;;;;;;4958476;29;20200;-71
2023/01/26 20:21:18;;;;;;;15.68;10.90;;;;;;;;;;4958506;29;20215;-71
2023/01/26 20:23:45;;;;;;;15.52;10.07;;;;;;;;;;4958281;29;20234;-71
2023/01/26 20:26:13;;;;;;;14.52;10.20;;;;;;;;;;4958231;29;20246;-71
2023/01/26 20:28:40;;;;;;;14.02;10.07;;;;;;;;;;4958772;29;20220;-71
2023/01/26 20:31:08;;;;;;;14.60;10.18;;;;;;;;;;4958330;29;20208;-71
2023/01/26 20:33:36;;;;;;;13.88;9.82;;;;;;;;;;4958479;29;20211;-72
2023/01/26 20:36:05;;;;;;;17.15;10.63;;;;;;;;;;4958440;29;20230;-71
2023/01/26 20:38:32;;;;;;;17.88;10.50;;;;;;;;;;4957904;29;20215;-71
2023/01/26 20:40:59;;;;;;;15.90;10.95;;;;;;;;;;4958187;29;20568;-71
2023/01/26 20:43:28;;;;;;;15.85;10.15;;;;;;;;;;4957515;28;20607;-71
2023/01/26 20:45:55;;;;;;;16.20;10.32;;;;;;;;;;4959187;29;20232;-71
2023/01/26 20:48:22;;;;;;;15.90;10.52;;;;;;;;;;4958051;29;20232;-71
2023/01/26 20:50:51;;;;;;;17.25;10.68;;;;;;;;;;4958051;29;20200;-72
2023/01/26 20:53:18;;;;;;;19.02;10.07;;;;;;;;;;4958077;29;20263;-71
2023/01/26 20:55:45;;;;;;;15.43;10.50;;;;;;;;;;4958068;29;20224;-71
2023/01/26 20:58:12;;;;;;;16.33;11.13;;;;;;;;;;4957916;29;20208;-71
2023/01/26 21:00:40;;;;;;;16.98;10.10;;;;;;;;;;4957827;29;20200;-71
2023/01/26 21:03:07;;;;;;;14.85;9.70;;;;;;;;;;4957770;29;20203;-71
2023/01/26 21:05:34;;;;;;;15.43;10.15;;;;;;;;;;4957622;29;20230;-71
2023/01/26 21:08:01;;;;;;;12.90;9.50;;;;;;;;;;4957965;29;20224;-71
2023/01/26 21:10:28;;;;;;;12.48;9.23;;;;;;;;;;4957753;29;20212;-70
2023/01/26 21:12:56;;;;;;;17.92;10.27;;;;;;;;;;4957401;29;20200;-69
2023/01/26 21:15:23;;;;;;;14.13;10.38;;;;;;;;;;4957410;29;20255;-69
2023/01/26 21:17:51;;;;;;;13.02;9.68;;;;;;;;;;4957413;29;20204;-69
2023/01/26 21:20:19;;;;;;;15.77;9.90;;;;;;;;;;4957376;29;20204;-69
2023/01/26 21:22:46;;;;;;;17.38;10.73;;;;;;;;;;4957334;29;20204;-70
2023/01/26 21:25:13;;;;;;;17.17;10.57;;;;;;;;;;4957438;29;20232;-70
2023/01/26 21:27:40;;;;;;;12.68;9.63;;;;;;;;;;4957595;29;20204;-70
2023/01/26 21:30:07;;;;;;;16.55;9.32;;;;;;;;;;4957214;29;20223;-71
2023/01/26 21:32:34;;;;;;;13.75;9.63;;;;;;;;;;4957743;29;20208;-70
2023/01/26 21:35:03;;;;;;;13.98;9.43;;;;;;;;;;4957167;29;20288;-71
2023/01/26 21:37:30;;;;;;;16.48;10.40;;;;;;;;;;4957402;29;20211;-71
2023/01/26 21:39:57;;;;;;;16.15;9.55;;;;;;;;;;4957300;29;20200;-71
2023/01/26 21:42:24;;;;;;;12.98;9.88;;;;;;;;;;4957401;29;20204;-71
2023/01/26 21:47:38;;;;;;;15.70;9.27;;;;;;;;;;4955979;28;20678;-70
2023/01/26 21:50:07;;;;;;;17.70;10.52;;;;;;;;;;4957059;29;20224;-70
2023/01/26 21:55:19;;;;;;;15.90;10.30;;;;;;;;;;4956400;28;20215;-70
2023/01/26 22:00:30;;;;;;;17.17;10.77;;;;;;;;;;4957324;29;20231;-70
2023/01/26 22:02:59;;;;;;;16.75;11.32;;;;;;;;;;4956790;29;20548;-70
2023/01/26 22:05:27;;;;;;;22.60;12.98;;;;;;;;;;4956971;29;20231;-67
2023/01/26 22:07:54;;;;;;;16.10;10.10;;;;;;;;;;4956856;29;20357;-67
2023/01/26 22:10:21;;;;;;;12.75;8.48;;;;;;;;;;4956780;29;20228;-66
2023/01/26 22:12:49;;;;;;;11.07;8.02;;;;;;;;;;4956817;29;20200;-66
2023/01/26 22:15:16;;;;;;;13.13;8.75;;;;;;;;;;4956533;29;20224;-66
2023/01/26 22:17:43;;;;;;;18.17;10.80;;;;;;;;;;4956853;29;20561;-66
2023/01/26 22:20:11;;;;;;;19.58;11.68;;;;;;;;;;4956882;29;20583;-66
2023/01/26 22:22:40;;;;;;;15.90;10.27;;;;;;;;;;4956772;29;20208;-66
2023/01/26 22:25:07;;;;;;;25.92;14.57;;;;;;;;;;4956229;29;20632;-66
2023/01/26 22:27:34;;;;;;;27.55;14.48;;;;;;;;;;4956205;29;20575;-66
2023/01/26 22:30:01;;;;;;;24.63;13.43;;;;;;;;;;4956309;29;20220;-66
2023/01/26 22:32:28;;;;;;;24.75;13.07;;;;;;;;;;4956049;29;20212;-66
2023/01/26 22:34:55;;;;;;;26.40;14.10;;;;;;;;;;4955786;29;20232;-67
2023/01/26 22:37:23;;;;;;;24.63;12.40;;;;;;;;;;4955685;29;20247;-67
2023/01/26 22:39:51;;;;;;;21.42;10.85;;;;;;;;;;4955900;29;20239;-67
2023/01/26 22:42:18;;;;;;;22.27;11.15;;;;;;;;;;4955819;29;20208;-67
2023/01/26 22:44:45;;;;;;;10.82;8.15;;;;;;;;;;4955803;29;20707;-66
2023/01/26 22:47:12;;;;;;;7.85;6.88;;;;;;;;;;4955785;29;20203;-66
2023/01/26 22:49:39;;;;;;;10.30;6.97;;;;;;;;;;4955680;29;20231;-66
2023/01/26 22:52:07;;;;;;;9.63;6.50;;;;;;;;;;4955389;29;20203;-66
2023/01/26 22:54:34;;;;;;;9.23;6.75;;;;;;;;;;4955625;29;20230;-66
2023/01/26 22:57:02;;;;;;;8.82;7.22;;;;;;;;;;4955592;29;20203;-66
2023/01/26 22:59:29;;;;;;;10.05;7.18;;;;;;;;;;4955601;29;20196;-66
2023/01/26 23:01:56;;;;;;;8.13;6.25;;;;;;;;;;4955493;29;20204;-66
2023/01/26 23:04:23;;;;;;;7.43;6.38;;;;;;;;;;4955240;29;20639;-67
2023/01/26 23:06:50;;;;;;;8.57;6.28;;;;;;;;;;4955366;28;20204;-66
2023/01/26 23:09:18;;;;;;;10.48;6.60;;;;;;;;;;4955514;29;20247;-66
2023/01/26 23:11:45;;;;;;;8.38;6.53;;;;;;;;;;4955507;29;20579;-66
2023/01/26 23:14:13;;;;;;;7.80;5.70;;;;;;;;;;4955598;29;20306;-66
2023/01/26 23:16:40;;;;;;;9.73;6.65;;;;;;;;;;4955556;29;20203;-66
2023/01/26 23:19:07;;;;;;;7.18;5.50;;;;;;;;;;4955509;29;20208;-66
2023/01/26 23:21:34;;;;;;;7.85;6.60;;;;;;;;;;4955510;29;20290;-67
2023/01/26 23:24:01;;;;;;;7.72;6.47;;;;;;;;;;4955326;29;20207;-67
2023/01/26 23:26:28;;;;;;;8.60;5.97;;;;;;;;;;4955371;29;20204;-66
2023/01/26 23:28:55;;;;;;;6.97;6.00;;;;;;;;;;4955265;29;20231;-66
2023/01/26 23:31:24;;;;;;;8.65;6.63;;;;;;;;;;4955834;29;20204;-66
2023/01/26 23:33:51;;;;;;;8.77;6.45;;;;;;;;;;4956126;29;20617;-66
2023/01/26 23:36:19;;;;;;;7.75;6.18;;;;;;;;;;4954884;29;20732;-66
2023/01/26 23:38:46;;;;;;;6.70;5.90;;;;;;;;;;4954944;29;20212;-66
2023/01/26 23:41:13;;;;;;;8.02;6.18;;;;;;;;;;4956050;29;20207;-66
2023/01/26 23:43:40;;;;;;;7.60;6.28;;;;;;;;;;4955292;29;20207;-66
2023/01/26 23:46:08;;;;;;;7.32;5.57;;;;;;;;;;4955115;29;20220;-67
2023/01/26 23:48:37;;;;;;;6.78;5.75;;;;;;;;;;4954823;29;20687;-67
2023/01/26 23:51:05;;;;;;;10.52;5.93;;;;;;;;;;4955099;29;20215;-67
2023/01/26 23:53:32;;;;;;;7.82;6.00;;;;;;;;;;4955153;29;20204;-67
2023/01/26 23:56:00;;;;;;;10.90;6.75;;;;;;;;;;4954799;29;20261;-67
2023/01/26 23:58:27;;;;;;;8.07;5.78;;;;;;;;;;4955228;29;20229;-67
